Terminal Aerodrome Forecast
Issued by NWS Cleveland, OH

Home | Current Version | Previous Version | Graphics & Text | Print | Product List | Glossary On
Versions: 1 2 3 4 5 6 7 8 9 10 11 12 13 14 15 16 17 18 19 20
000
FTUS41 KCLE 221400 AAA
TAFYNG
TAF AMD
KYNG 221415Z 2214/2312 18010KT 3SM -FZRA SCT015 OVC025
      TEMPO 2214/2217 2SM -FZRA BKN015
     FM221700 19011KT 5SM BR BKN020 OVC050
     FM222000 21010KT P6SM VCSH BKN030 OVC050
     FM222300 19010KT P6SM OVC040=

USA.gov is the U.S. government's official web portal to all federal, state and local government web resources and services.